sensor_id;sensor_type;location;lat;lon;timestamp;temperature;humidity
6863;DHT22;3470;48.738;9.616;2023-08-06T00:00:10;14.00;99.90
6863;DHT22;3470;48.738;9.616;2023-08-06T00:02:35;14.00;99.90
6863;DHT22;3470;48.738;9.616;2023-08-06T00:05:01;14.00;99.90
6863;DHT22;3470;48.738;9.616;2023-08-06T00:07:27;14.00;99.90
6863;DHT22;3470;48.738;9.616;2023-08-06T00:09:53;14.00;99.90
6863;DHT22;3470;48.738;9.616;2023-08-06T00:12:19;13.90;99.90
6863;DHT22;3470;48.738;9.616;2023-08-06T00:14:44;13.90;99.90
6863;DHT22;3470;48.738;9.616;2023-08-06T00:17:10;14.00;99.90
6863;DHT22;3470;48.738;9.616;2023-08-06T00:19:36;13.90;99.90
6863;DHT22;3470;48.738;9.616;2023-08-06T00:22:01;14.00;99.90
6863;DHT22;3470;48.738;9.616;2023-08-06T00:24:27;13.90;99.90
6863;DHT22;3470;48.738;9.616;2023-08-06T00:26:53;14.00;99.90
6863;DHT22;3470;48.738;9.616;2023-08-06T00:29:18;13.90;99.90
6863;DHT22;3470;48.738;9.616;2023-08-06T00:31:44;14.00;99.90
6863;DHT22;3470;48.738;9.616;2023-08-06T00:34:10;14.00;99.90
6863;DHT22;3470;48.738;9.616;2023-08-06T00:36:35;13.90;99.90
6863;DHT22;3470;48.738;9.616;2023-08-06T00:39:01;13.90;99.90
6863;DHT22;3470;48.738;9.616;2023-08-06T00:41:26;14.00;99.90
6863;DHT22;3470;48.738;9.616;2023-08-06T00:43:52;13.90;99.90
6863;DHT22;3470;48.738;9.616;2023-08-06T00:46:18;13.90;99.90
6863;DHT22;3470;48.738;9.616;2023-08-06T00:48:44;14.00;99.90
6863;DHT22;3470;48.738;9.616;2023-08-06T00:51:10;13.90;99.90
6863;DHT22;3470;48.738;9.616;2023-08-06T00:53:37;13.90;99.90
6863;DHT22;3470;48.738;9.616;2023-08-06T00:56:03;13.80;99.90
6863;DHT22;3470;48.738;9.616;2023-08-06T00:58:29;13.70;99.90
6863;DHT22;3470;48.738;9.616;2023-08-06T01:00:55;13.60;99.90
6863;DHT22;3470;48.738;9.616;2023-08-06T01:03:21;13.50;99.90
6863;DHT22;3470;48.738;9.616;2023-08-06T18:14:27;12.00;99.90
6863;DHT22;3470;48.738;9.616;2023-08-06T18:16:52;12.00;99.90
6863;DHT22;3470;48.738;9.616;2023-08-06T18:19:18;12.10;99.90
6863;DHT22;3470;48.738;9.616;2023-08-06T18:32:16;12.20;99.90
6863;DHT22;3470;48.738;9.616;2023-08-06T18:34:42;12.30;99.90
6863;DHT22;3470;48.738;9.616;2023-08-06T18:37:07;12.30;99.90
6863;DHT22;3470;48.738;9.616;2023-08-06T18:39:33;12.30;99.90
6863;DHT22;3470;48.738;9.616;2023-08-06T18:41:58;12.40;99.90
6863;DHT22;3470;48.738;9.616;2023-08-06T18:44:24;12.40;99.90
6863;DHT22;3470;48.738;9.616;2023-08-06T18:46:49;12.40;99.90
6863;DHT22;3470;48.738;9.616;2023-08-06T18:49:15;12.40;99.90
6863;DHT22;3470;48.738;9.616;2023-08-06T18:51:41;12.30;99.90
6863;DHT22;3470;48.738;9.616;2023-08-06T18:54:06;12.40;99.90
6863;DHT22;3470;48.738;9.616;2023-08-06T18:56:32;12.40;99.90
6863;DHT22;3470;48.738;9.616;2023-08-06T18:58:57;12.40;99.90
6863;DHT22;3470;48.738;9.616;2023-08-06T19:01:23;12.40;99.90
6863;DHT22;3470;48.738;9.616;2023-08-06T19:03:48;12.40;99.90
6863;DHT22;3470;48.738;9.616;2023-08-06T19:06:14;12.40;99.90
6863;DHT22;3470;48.738;9.616;2023-08-06T19:08:40;12.40;99.90
6863;DHT22;3470;48.738;9.616;2023-08-06T19:11:05;12.40;99.90
6863;DHT22;3470;48.738;9.616;2023-08-06T19:13:31;12.20;99.90
6863;DHT22;3470;48.738;9.616;2023-08-06T19:15:57;11.90;99.90
6863;DHT22;3470;48.738;9.616;2023-08-06T19:18:22;11.70;99.90
6863;DHT22;3470;48.738;9.616;2023-08-06T19:20:48;11.60;99.90
6863;DHT22;3470;48.738;9.616;2023-08-06T19:23:14;11.60;99.90
6863;DHT22;3470;48.738;9.616;2023-08-06T19:25:47;11.60;99.90
6863;DHT22;3470;48.738;9.616;2023-08-06T19:28:14;11.60;99.90
6863;DHT22;3470;48.738;9.616;2023-08-06T19:30:40;11.60;99.90
6863;DHT22;3470;48.738;9.616;2023-08-06T19:33:10;11.50;99.90
6863;DHT22;3470;48.738;9.616;2023-08-06T19:35:46;11.40;99.90
6863;DHT22;3470;48.738;9.616;2023-08-06T19:38:20;11.30;99.90
6863;DHT22;3470;48.738;9.616;2023-08-06T19:40:46;11.40;99.90
6863;DHT22;3470;48.738;9.616;2023-08-06T19:43:12;11.40;99.90
6863;DHT22;3470;48.738;9.616;2023-08-06T19:45:38;11.40;99.90
6863;DHT22;3470;48.738;9.616;2023-08-06T19:48:06;11.40;99.90
6863;DHT22;3470;48.738;9.616;2023-08-06T19:50:32;11.40;99.90
6863;DHT22;3470;48.738;9.616;2023-08-06T19:52:58;11.40;99.90
6863;DHT22;3470;48.738;9.616;2023-08-06T19:55:24;11.50;99.90
6863;DHT22;3470;48.738;9.616;2023-08-06T19:57:50;11.50;99.90
6863;DHT22;3470;48.738;9.616;2023-08-06T20:00:16;11.60;99.90
6863;DHT22;3470;48.738;9.616;2023-08-06T20:02:42;11.50;99.90
6863;DHT22;3470;48.738;9.616;2023-08-06T20:05:08;11.60;99.90
6863;DHT22;3470;48.738;9.616;2023-08-06T20:07:33;11.60;99.90
6863;DHT22;3470;48.738;9.616;2023-08-06T20:09:59;11.60;99.90
6863;DHT22;3470;48.738;9.616;2023-08-06T20:12:24;11.60;99.90
6863;DHT22;3470;48.738;9.616;2023-08-06T20:14:50;11.60;99.90
6863;DHT22;3470;48.738;9.616;2023-08-06T20:17:16;11.70;99.90
6863;DHT22;3470;48.738;9.616;2023-08-06T20:19:41;11.70;99.90
6863;DHT22;3470;48.738;9.616;2023-08-06T20:22:07;11.80;99.90
6863;DHT22;3470;48.738;9.616;2023-08-06T20:24:32;11.80;99.90
6863;DHT22;3470;48.738;9.616;2023-08-06T20:26:58;11.90;99.90
6863;DHT22;3470;48.738;9.616;2023-08-06T20:29:25;11.90;99.90
6863;DHT22;3470;48.738;9.616;2023-08-06T20:31:51;11.80;99.90
6863;DHT22;3470;48.738;9.616;2023-08-06T20:34:17;11.80;99.90
6863;DHT22;3470;48.738;9.616;2023-08-06T20:36:42;11.80;99.90
6863;DHT22;3470;48.738;9.616;2023-08-06T20:39:08;11.80;99.90
6863;DHT22;3470;48.738;9.616;2023-08-06T20:41:33;11.70;99.90
6863;DHT22;3470;48.738;9.616;2023-08-06T20:43:59;11.60;99.90
6863;DHT22;3470;48.738;9.616;2023-08-06T20:46:24;11.70;99.90
6863;DHT22;3470;48.738;9.616;2023-08-06T20:48:50;11.70;99.90
6863;DHT22;3470;48.738;9.616;2023-08-06T20:51:16;11.60;99.90
6863;DHT22;3470;48.738;9.616;2023-08-06T20:53:41;11.50;99.90
6863;DHT22;3470;48.738;9.616;2023-08-06T20:56:07;11.40;99.90
6863;DHT22;3470;48.738;9.616;2023-08-06T20:58:33;11.40;99.90
6863;DHT22;3470;48.738;9.616;2023-08-06T21:01:00;11.30;99.90
6863;DHT22;3470;48.738;9.616;2023-08-06T21:03:26;11.30;99.90
6863;DHT22;3470;48.738;9.616;2023-08-06T21:06:06;11.10;99.90
6863;DHT22;3470;48.738;9.616;2023-08-06T21:08:32;10.90;99.90
6863;DHT22;3470;48.738;9.616;2023-08-06T21:10:59;10.70;99.90
6863;DHT22;3470;48.738;9.616;2023-08-06T21:13:26;10.70;99.90
6863;DHT22;3470;48.738;9.616;2023-08-06T21:15:59;10.70;99.90
6863;DHT22;3470;48.738;9.616;2023-08-06T21:18:27;10.70;99.90
6863;DHT22;3470;48.738;9.616;2023-08-06T21:20:55;10.60;99.90
6863;DHT22;3470;48.738;9.616;2023-08-06T21:23:21;10.50;99.90
6863;DHT22;3470;48.738;9.616;2023-08-06T21:25:49;10.50;99.90
6863;DHT22;3470;48.738;9.616;2023-08-06T21:28:14;10.50;99.90
6863;DHT22;3470;48.738;9.616;2023-08-06T21:30:40;10.50;99.90
